createdAt,value
2019-06-07T06:08:37.502Z,33.20
2019-06-07T06:14:46.893Z,23.00
2019-06-07T06:20:06.888Z,12.40
2019-06-07T06:21:19.948Z,15.80
2019-06-07T06:30:14.118Z,24.50
2019-06-07T06:30:43.773Z,15.80
2019-06-07T06:40:22.583Z,16.70
2019-06-07T06:42:50.111Z,14.70
2019-06-07T06:43:50.325Z,24.60
2019-06-07T06:44:53.640Z,19.70
2019-06-07T06:45:58.931Z,14.00
2019-06-07T06:46:56.111Z,16.60
2019-06-07T06:49:35.298Z,38.20
2019-06-07T06:56:19.394Z,32.10
2019-06-07T06:57:20.396Z,31.90
2019-06-07T06:59:52.064Z,13.20
2019-06-07T07:00:56.800Z,28.50
2019-06-07T07:05:20.119Z,19.40
2019-06-07T07:11:23.260Z,14.90
2019-06-07T07:13:56.930Z,14.80
2019-06-07T07:16:59.862Z,17.00
2019-06-07T07:19:49.848Z,31.10
2019-06-07T07:21:08.769Z,19.90
2019-06-07T07:27:06.041Z,37.20
2019-06-07T07:27:55.371Z,17.50
2019-06-07T07:29:37.976Z,16.00
2019-06-07T07:29:47.442Z,13.90
2019-06-07T07:31:05.807Z,32.10
2019-06-07T07:52:36.953Z,13.10
2019-06-07T07:53:54.601Z,13.40
2019-06-07T07:56:07.783Z,18.60
2019-06-07T07:56:45.298Z,17.80
2019-06-07T08:02:18.906Z,10.20
2019-06-07T08:14:51.295Z,39.20
2019-06-07T08:16:19.877Z,23.40
2019-06-07T08:19:22.683Z,19.30
2019-06-07T08:21:08.802Z,20.90
2019-06-07T08:22:52.547Z,24.20
2019-06-07T08:32:00.413Z,15.90
2019-06-07T16:11:11.450Z,7.80
2019-06-07T16:12:12.548Z,9.30
2019-06-07T16:13:11.437Z,8.80
2019-06-07T16:14:12.017Z,10.80
2019-06-07T16:15:11.249Z,7.20
2019-06-07T16:16:11.219Z,8.80
2019-06-07T16:17:11.199Z,10.40
2019-06-07T16:18:11.286Z,10.50
2019-06-07T16:19:11.184Z,10.10
2019-06-07T16:20:11.246Z,9.00
2019-06-07T16:21:11.156Z,8.90
2019-06-07T16:22:11.112Z,35.20
2019-06-07T16:23:11.113Z,12.30
2019-06-07T16:24:11.107Z,10.60
2019-06-07T16:25:11.085Z,9.30
2019-06-07T16:26:11.330Z,8.70
2019-06-07T16:27:11.109Z,9.50
2019-06-07T16:28:11.135Z,12.20
2019-06-07T16:29:11.037Z,9.30
2019-06-07T16:30:11.047Z,9.20
2019-06-07T16:31:11.004Z,10.90
2019-06-07T16:32:11.114Z,12.90
2019-06-07T16:33:11.008Z,9.20
2019-06-07T16:34:10.999Z,9.30
2019-06-07T16:35:10.989Z,8.80
2019-06-07T16:36:10.963Z,9.20
2019-06-07T16:37:10.989Z,9.80
2019-06-07T16:38:11.122Z,9.10
2019-06-07T16:39:10.949Z,8.30
2019-06-07T16:40:10.924Z,8.80
2019-06-07T16:41:10.959Z,10.60
2019-06-07T16:42:10.916Z,10.10
2019-06-07T16:43:17.942Z,9.30
2019-06-07T16:44:11.857Z,10.50
2019-06-07T16:45:10.928Z,11.50
2019-06-07T16:46:10.853Z,9.50
2019-06-07T16:47:10.828Z,8.20
2019-06-07T16:48:10.843Z,11.10
2019-06-07T16:49:10.846Z,8.90
2019-06-07T16:50:10.860Z,15.50
2019-06-07T16:51:10.804Z,8.60
2019-06-07T16:52:10.797Z,9.40
2019-06-07T16:53:10.805Z,8.40
2019-06-07T16:54:10.773Z,8.90
2019-06-07T16:55:10.792Z,9.00
2019-06-07T16:56:10.766Z,9.10
2019-06-07T16:57:10.743Z,10.40
2019-06-07T16:58:10.744Z,9.10
2019-06-07T16:59:10.715Z,11.20
2019-06-07T17:00:10.761Z,9.40
2019-06-07T17:01:10.701Z,9.00
2019-06-07T17:02:10.690Z,9.10
2019-06-07T17:03:10.659Z,9.40
2019-06-07T17:04:10.667Z,11.20
2019-06-07T17:05:10.640Z,8.50
2019-06-07T17:06:10.770Z,8.90
2019-06-07T17:07:10.675Z,11.00
2019-06-07T17:08:10.611Z,10.60
2019-06-07T17:09:10.597Z,11.00
2019-06-07T17:10:10.592Z,11.60
2019-06-07T17:11:10.647Z,9.70
2019-06-07T17:12:24.126Z,8.60
2019-06-07T17:13:10.757Z,8.90
2019-06-07T17:14:10.637Z,10.40
2019-06-07T17:15:13.124Z,9.70
2019-06-07T17:16:10.528Z,9.50
2019-06-07T17:17:10.529Z,10.10
2019-06-07T17:18:10.539Z,10.30
2019-06-07T17:19:10.495Z,9.20
2019-06-07T17:20:10.512Z,9.50
2019-06-07T17:21:10.458Z,9.30
2019-06-07T17:22:10.475Z,9.50
2019-06-07T17:23:10.437Z,10.90
2019-06-07T17:24:10.442Z,9.20
2019-06-07T17:25:10.428Z,10.30
2019-06-07T17:26:10.421Z,9.10
2019-06-07T17:27:10.384Z,9.00
2019-06-07T17:28:10.380Z,9.60
2019-06-07T17:29:10.391Z,8.80
2019-06-07T17:30:10.360Z,8.90
2019-06-07T17:31:10.381Z,8.50
2019-06-07T17:32:10.366Z,8.60
2019-06-07T17:33:10.451Z,9.00
2019-06-07T17:34:10.304Z,8.90
2019-06-07T17:35:10.391Z,9.10
2019-06-07T17:36:10.312Z,8.40
2019-06-07T17:37:10.289Z,9.00
2019-06-07T17:38:10.371Z,8.10
2019-06-07T17:39:10.268Z,9.10
2019-06-07T17:40:10.261Z,9.80
2019-06-07T17:41:10.268Z,8.40
2019-06-07T17:42:10.233Z,8.80
2019-06-07T17:43:10.217Z,11.70
2019-06-07T17:44:10.259Z,9.80
2019-06-07T17:45:10.173Z,10.10
2019-06-07T17:46:10.203Z,12.50
2019-06-07T17:47:10.173Z,8.70
2019-06-07T17:48:10.199Z,10.00
2019-06-07T17:49:10.140Z,11.60
2019-06-07T17:50:10.128Z,8.50
2019-06-07T17:51:10.353Z,8.50
2019-06-07T17:52:10.157Z,8.40
2019-06-07T17:53:10.110Z,9.00
2019-06-07T17:54:10.196Z,8.30
2019-06-07T17:55:10.076Z,8.10
2019-06-07T17:56:10.070Z,11.00
2019-06-07T17:57:10.081Z,9.00
2019-06-07T17:58:10.074Z,8.50
2019-06-07T17:59:10.034Z,8.40
2019-06-07T18:01:11.002Z,9.90
2019-06-07T18:02:15.278Z,9.20
2019-06-07T18:03:10.002Z,7.80
2019-06-07T18:04:09.985Z,8.40
2019-06-07T18:05:09.971Z,10.30
2019-06-07T18:06:09.949Z,10.50
2019-06-07T18:07:09.940Z,9.20
2019-06-07T18:08:10.001Z,9.70
2019-06-07T18:09:09.918Z,8.30
2019-06-07T18:10:09.914Z,10.30
2019-06-07T18:11:09.954Z,8.80
2019-06-07T18:12:09.868Z,8.40
2019-06-07T18:13:09.882Z,8.80
2019-06-07T18:14:11.078Z,8.70
2019-06-07T18:15:09.837Z,8.40
2019-06-07T18:16:09.845Z,8.70
2019-06-07T18:17:09.814Z,12.30
2019-06-07T18:18:09.830Z,8.50
2019-06-07T18:19:09.821Z,8.20
2019-06-07T18:20:09.824Z,9.60
2019-06-07T18:21:09.795Z,8.20
2019-06-07T18:22:09.763Z,8.30
2019-06-07T18:23:09.771Z,9.00
2019-06-07T18:24:09.828Z,9.70
2019-06-07T18:25:09.746Z,8.20
2019-06-07T18:26:09.746Z,8.50
2019-06-07T18:27:09.738Z,8.10
2019-06-07T18:28:09.691Z,8.30
2019-06-07T18:29:09.739Z,8.50
2019-06-07T18:30:11.641Z,7.90
2019-06-07T18:31:10.553Z,8.80
2019-06-07T18:32:13.384Z,8.50
2019-06-07T18:33:09.640Z,7.30
2019-06-07T18:34:09.633Z,8.00
2019-06-07T18:35:09.641Z,10.00
2019-06-07T18:36:09.749Z,10.60
2019-06-07T18:37:09.607Z,8.90
2019-06-07T18:38:10.945Z,7.50
2019-06-07T18:39:12.902Z,8.70
2019-06-07T18:40:09.572Z,8.80
2019-06-07T18:41:09.564Z,10.50
2019-06-07T18:42:09.572Z,11.20
2019-06-07T18:43:09.579Z,8.30
2019-06-07T18:44:21.056Z,9.50
2019-06-07T18:45:10.526Z,7.80
2019-06-07T18:46:09.562Z,8.00
2019-06-07T18:47:09.550Z,8.90
2019-06-07T18:48:09.527Z,10.70
2019-06-07T18:49:09.532Z,9.50
2019-06-07T18:50:09.478Z,8.00
2019-06-07T18:51:09.472Z,9.70
2019-06-07T18:52:09.468Z,10.10
2019-06-07T18:53:09.503Z,9.00
2019-06-07T18:54:09.427Z,8.90
2019-06-07T18:55:09.410Z,8.60
2019-06-07T18:56:09.477Z,18.80
2019-06-07T18:57:12.340Z,9.40
2019-06-07T18:58:09.631Z,10.70
2019-06-07T18:59:10.012Z,12.10
2019-06-07T19:00:09.408Z,10.10
2019-06-07T19:01:09.392Z,8.70
2019-06-07T19:02:09.705Z,7.80
2019-06-07T19:03:09.332Z,8.90
2019-06-07T19:04:09.411Z,8.70
2019-06-07T19:05:09.374Z,9.30
2019-06-07T19:06:09.310Z,9.70
2019-06-07T19:07:09.298Z,9.80
2019-06-07T19:08:09.365Z,9.00
2019-06-07T19:09:09.267Z,8.80
2019-06-07T19:10:11.078Z,9.00
2019-06-07T19:11:09.279Z,8.80
2019-06-07T19:12:09.306Z,9.10
2019-06-07T19:13:12.022Z,8.90
2019-06-07T19:14:09.199Z,11.10
2019-06-07T19:15:09.262Z,8.40
2019-06-07T19:16:09.199Z,8.90
2019-06-07T19:17:09.200Z,8.60
2019-06-07T19:18:09.294Z,8.10
2019-06-07T19:19:09.161Z,9.30
2019-06-07T19:20:09.142Z,8.90
2019-06-07T19:21:09.246Z,9.70
2019-06-07T19:22:09.171Z,11.10
2019-06-07T19:23:09.172Z,12.60
2019-06-07T19:24:09.094Z,8.40
2019-06-07T19:25:09.113Z,11.00
2019-06-07T19:26:09.242Z,10.00
2019-06-07T19:27:09.108Z,11.60
2019-06-07T19:28:09.119Z,10.40
2019-06-07T19:29:09.112Z,11.00
2019-06-07T19:30:09.082Z,10.20
2019-06-07T19:31:09.107Z,10.20
2019-06-07T19:32:09.090Z,9.70
2019-06-07T19:33:09.079Z,9.70
2019-06-07T19:34:09.023Z,11.00
2019-06-07T19:35:08.959Z,9.80
2019-06-07T19:36:08.966Z,9.40
2019-06-07T19:37:08.966Z,10.50
2019-06-07T19:38:08.987Z,11.50
2019-06-07T19:39:08.983Z,11.50
2019-06-07T19:40:08.932Z,12.30
2019-06-07T19:41:19.204Z,10.70
2019-06-07T19:42:09.890Z,10.20
2019-06-07T19:43:08.900Z,12.50
2019-06-07T19:44:08.917Z,9.90
2019-06-07T19:45:28.933Z,9.60
2019-06-07T19:46:09.855Z,9.70
2019-06-07T19:47:08.815Z,10.20
2019-06-07T19:48:08.866Z,8.10
2019-06-07T19:49:08.837Z,8.00
2019-06-07T19:50:08.826Z,10.30
2019-06-07T19:51:08.940Z,8.20
2019-06-07T19:52:08.758Z,8.30
2019-06-07T19:53:08.870Z,9.30
2019-06-07T19:54:08.782Z,8.00
2019-06-07T19:55:09.697Z,8.70
2019-06-07T19:56:08.807Z,10.00
2019-06-07T19:57:08.707Z,8.00
2019-06-07T19:58:08.758Z,7.90
2019-06-07T19:59:08.712Z,8.50
2019-06-07T20:00:13.885Z,8.80
2019-06-07T20:01:09.769Z,8.90
2019-06-07T20:02:08.706Z,8.50
2019-06-07T20:03:08.639Z,9.80
2019-06-07T20:04:08.686Z,9.00
2019-06-07T20:05:08.646Z,9.40
2019-06-07T20:06:08.619Z,8.00
2019-06-07T20:07:08.679Z,8.90
2019-06-07T20:08:08.633Z,8.30
2019-06-07T20:09:08.617Z,7.90
2019-06-07T20:10:08.538Z,9.10
2019-06-07T20:11:08.554Z,8.10
2019-06-07T20:12:08.555Z,8.60
2019-06-07T20:13:08.548Z,7.70
2019-06-07T20:14:08.511Z,7.80
2019-06-07T20:15:27.056Z,8.50
2019-06-07T20:16:10.011Z,8.10
2019-06-07T20:17:08.498Z,7.40
2019-06-07T20:18:08.517Z,7.30
2019-06-07T20:19:09.067Z,9.20
2019-06-07T20:20:08.948Z,7.70
2019-06-07T20:21:09.190Z,8.90
2019-06-07T20:22:09.577Z,8.10
2019-06-07T20:23:09.349Z,7.90
2019-06-07T20:24:24.784Z,7.50
2019-06-07T20:25:09.460Z,7.40
2019-06-07T20:26:09.007Z,7.30
2019-06-07T20:27:08.624Z,7.60
2019-06-07T20:28:09.428Z,7.60
2019-06-07T20:29:24.899Z,7.60
2019-06-07T20:30:09.366Z,7.20
2019-06-07T20:31:08.376Z,9.10
2019-06-07T20:32:08.934Z,6.70
2019-06-07T20:33:08.318Z,7.40
2019-06-07T20:34:09.086Z,8.50
2019-06-07T20:35:08.453Z,9.70
2019-06-07T20:36:09.104Z,8.00
2019-06-07T20:37:09.170Z,12.90
2019-06-07T20:38:09.430Z,8.30
2019-06-07T20:39:11.033Z,7.10
2019-06-07T20:40:23.027Z,6.90
2019-06-07T20:41:09.204Z,7.50
2019-06-07T20:42:08.170Z,7.90
2019-06-07T20:43:08.311Z,9.10
2019-06-07T20:44:08.222Z,9.10
2019-06-07T20:45:08.314Z,8.60
2019-06-07T20:46:08.285Z,9.70
2019-06-07T20:47:08.435Z,9.20
2019-06-07T20:48:08.462Z,9.40
2019-06-07T20:49:08.414Z,7.50
2019-06-07T20:50:08.731Z,8.30
2019-06-07T20:51:08.679Z,7.40
2019-06-07T20:52:08.607Z,8.00
2019-06-07T20:53:09.164Z,8.40
2019-06-07T20:54:09.138Z,7.50
2019-06-07T20:55:09.455Z,7.60
2019-06-07T20:56:09.210Z,8.30
2019-06-07T20:57:08.916Z,10.10
2019-06-07T20:58:08.046Z,7.70
2019-06-07T20:59:08.908Z,8.30
2019-06-07T21:00:14.238Z,8.10
2019-06-07T21:01:09.108Z,7.00
2019-06-07T21:02:09.557Z,7.70
2019-06-07T21:03:09.603Z,7.20
2019-06-07T21:04:09.151Z,8.00
2019-06-07T21:05:09.546Z,8.20
2019-06-07T21:06:07.910Z,7.90
2019-06-07T21:07:08.218Z,8.80
2019-06-07T21:08:10.773Z,7.60
2019-06-07T21:09:07.918Z,8.00
2019-06-07T21:10:08.385Z,8.10
2019-06-07T21:11:07.860Z,9.80
2019-06-07T21:12:07.999Z,7.50
2019-06-07T21:13:08.182Z,8.30
2019-06-07T21:14:08.233Z,7.70
2019-06-07T21:15:11.885Z,9.00
2019-06-07T21:16:08.813Z,7.90
2019-06-07T21:17:08.771Z,7.10
2019-06-07T21:18:16.282Z,8.20
2019-06-07T21:19:08.763Z,7.00
2019-06-07T21:20:10.306Z,7.30
2019-06-07T21:21:08.750Z,6.80
2019-06-07T21:22:08.806Z,7.90
2019-06-07T21:23:08.917Z,7.00
2019-06-07T21:24:08.780Z,7.20
2019-06-07T21:25:09.220Z,7.10
2019-06-07T21:26:08.923Z,7.20
2019-06-07T21:27:07.694Z,7.50
2019-06-07T21:28:07.670Z,8.60
2019-06-07T21:29:07.636Z,6.90
2019-06-07T21:30:07.652Z,7.20
2019-06-07T21:31:08.181Z,7.70
2019-06-07T21:32:09.634Z,7.40
2019-06-07T21:33:07.714Z,7.10
2019-06-07T21:34:10.628Z,7.50
2019-06-07T21:35:10.193Z,8.70
2019-06-07T21:36:07.848Z,7.50
2019-06-07T21:37:07.923Z,7.30
2019-06-07T21:38:07.885Z,7.20
2019-06-07T21:39:08.345Z,7.10
2019-06-07T21:40:08.189Z,7.30
2019-06-07T21:41:08.214Z,7.00
2019-06-07T21:42:08.181Z,8.00
2019-06-07T21:43:08.711Z,6.70
2019-06-07T21:44:08.238Z,7.70
2019-06-07T21:45:07.880Z,7.70
2019-06-07T21:46:12.783Z,6.60
2019-06-07T21:47:08.581Z,7.20
2019-06-07T21:48:08.737Z,7.90
2019-06-07T21:49:08.458Z,8.00
2019-06-07T21:50:08.669Z,7.40
2019-06-07T21:51:08.279Z,7.20
2019-06-07T21:52:08.739Z,7.10
2019-06-07T21:53:08.548Z,7.30
2019-06-07T21:54:10.116Z,8.60
2019-06-07T21:55:09.095Z,6.70
2019-06-07T21:56:08.891Z,7.60
2019-06-07T21:57:07.371Z,8.30
2019-06-07T21:58:07.396Z,7.90
2019-06-07T21:59:07.301Z,8.50
2019-06-07T22:00:07.294Z,8.40
2019-06-07T22:01:08.470Z,8.70
2019-06-07T22:02:07.533Z,7.10
2019-06-07T22:03:07.392Z,8.10
2019-06-07T22:04:07.541Z,7.70
2019-06-07T22:05:07.454Z,7.70
2019-06-07T22:06:07.643Z,7.30
2019-06-07T22:07:07.910Z,7.50
2019-06-07T22:08:08.217Z,7.60
2019-06-07T22:09:07.769Z,8.50
2019-06-07T22:10:08.022Z,8.80
2019-06-07T22:11:08.246Z,8.10
2019-06-07T22:12:07.978Z,8.00
2019-06-07T22:13:08.067Z,7.00
2019-06-07T22:14:08.424Z,8.70
2019-06-07T22:15:24.722Z,7.50
2019-06-07T22:16:23.330Z,9.40
2019-06-07T22:17:08.178Z,7.30
2019-06-07T22:18:08.454Z,15.10
2019-06-07T22:19:08.539Z,8.70
2019-06-07T22:20:08.462Z,7.60
2019-06-07T22:21:07.106Z,8.20
2019-06-07T22:22:09.323Z,8.30
2019-06-07T22:23:07.051Z,7.00
2019-06-07T22:24:07.039Z,8.00
2019-06-07T22:25:07.053Z,8.40
2019-06-07T22:26:07.165Z,10.90
2019-06-07T22:27:07.153Z,7.30
2019-06-07T22:28:08.060Z,9.10
2019-06-07T22:29:08.166Z,7.20
2019-06-07T22:30:08.267Z,7.40
2019-06-07T22:31:08.591Z,7.30
2019-06-07T22:32:06.954Z,7.90
2019-06-07T22:33:06.904Z,8.50
2019-06-07T22:34:08.651Z,8.40
2019-06-07T22:35:06.992Z,7.10
2019-06-07T22:36:06.923Z,8.30
2019-06-07T22:37:07.182Z,8.20
2019-06-07T22:38:08.084Z,6.60
2019-06-07T22:39:07.536Z,9.40
2019-06-07T22:40:08.320Z,7.10
2019-06-07T22:41:07.286Z,8.20
2019-06-07T22:42:06.842Z,8.70
2019-06-07T22:43:07.611Z,7.20
2019-06-07T22:44:07.131Z,7.40
2019-06-07T22:45:07.945Z,8.80
2019-06-07T22:46:06.818Z,7.00
2019-06-07T22:47:08.015Z,11.20
2019-06-07T22:48:06.896Z,7.70
2019-06-07T22:49:07.149Z,6.80
2019-06-07T22:50:08.318Z,9.00
2019-06-07T22:51:08.836Z,6.30
2019-06-07T22:52:09.375Z,8.50
2019-06-07T22:53:09.586Z,9.20
2019-06-07T22:59:21.727Z,13.80
2019-06-07T23:01:08.151Z,8.50
2019-06-07T23:03:40.769Z,7.90
2019-06-07T23:04:48.775Z,6.70
2019-06-07T23:05:40.664Z,10.40
2019-06-07T23:06:41.201Z,7.20
2019-06-07T23:07:53.858Z,7.20
2019-06-07T23:09:04.317Z,8.80
2019-06-07T23:11:17.349Z,6.20
2019-06-07T23:14:09.195Z,7.20
2019-06-07T23:15:32.076Z,7.80
2019-06-07T23:16:22.744Z,7.10
2019-06-07T23:17:09.390Z,7.30
2019-06-07T23:18:09.312Z,7.50
2019-06-07T23:19:07.960Z,9.10
2019-06-07T23:20:09.576Z,5.90
2019-06-07T23:21:20.090Z,6.30
2019-06-07T23:22:28.229Z,10.70
2019-06-07T23:23:08.153Z,7.60
2019-06-07T23:24:08.006Z,7.40
2019-06-07T23:27:12.725Z,8.50
2019-06-07T23:28:04.834Z,9.90
2019-06-07T23:54:54.359Z,7.00
2019-06-07T23:58:26.185Z,7.40
2019-06-07T23:59:26.157Z,5.40
